Pagina principale
METAR-TAF:

METAR-TAF

Aeroporti :

Aeroporto di Annaba-Rabah Bitat

Annaba, Algeria

latitudine: 36-50N, longitudine: 007-49E, altezza: 4 m

Osservazione

Il bollettino è stato emesso 54 minuti fa, alle 23:00 UTC
Vento 4 kt da sud-ovest
Temperature 15°C
Umidità 82%
Pressione 1014 hPa
Visibilità 10 km o più
nessuna nube inferiore a 1500 m e nessun cumulonembo

METAR: DABB 152300Z 23004KT CAVOK 15/12 Q1014

Ora: 00:54 (23:54 UTC)

Previsione

Il bollettino è stato emesso 54 minuti fa, alle 23:00 UTC
Previsione valida dal 16 alle 00 UTC al 16 alle 24 UTC
Vento 8 kt da est
Visibilità 10 km o più
Poco nuvoloso ad un'altezza di 3300 ft
Probabilità 30% :
Temporaneamente
dal 16 alle 03 UTC al 16 alle 08 UTC
Visibilità: 2000 m
Nubi sparse ad un'altezza di 800 ft
foschia

TAF: DABB 152300Z 1600/1624 10008KT 9999 FEW033 PROB30 TEMPO 1603/1608 2000 BR SCT008

Osservazioni e previsioni meteorologiche di più di 4000 aeroporti (messaggi METAR e TAF).

Le stazioni disponibili sono rappresentate dai dischi gialli e rossi sulla carta.

Puntare il mouse per vedere il nome della stazione.

Clicca sopra per visualizzare le osservazioni e previsioni meteorologiche.

Per cambiare la mappa : fare clic sui pulsanti verdi con una croce nera per ingrandire, il pulsante verde con un trattino per diminuire, o sulla freccia verde per le mappe adiacenti.


METAR-TAF: